Time;durP1;ratioP1;P1;durP2;ratioP2;P2;SDS_P1;SDS_P2;PMS_P1;PMS_P2;Temp;Humidity;BMP_temperature;BMP_pressure;BME280_temperature;BME280_humidity;BME280_pressure;Samples;Min_cycle;Max_cycle;Signal;HPM_P1;HPM_P2
2023/12/05 00:01:40;;;;;;;58.23;26.83;;;;;;;-1.91;65.72;100015.19;4939311;28;101291;-76
2023/12/05 00:04:06;;;;;;;53.47;25.50;;;;;;;-1.84;65.30;100003.25;4956139;28;101555;-75
2023/12/05 00:06:31;;;;;;;59.43;27.70;;;;;;;-1.71;65.10;100018.00;4939332;28;97140;-76
2023/12/05 00:08:57;;;;;;;52.90;26.50;;;;;;;-1.77;64.52;100019.63;4939980;28;96939;-75
2023/12/05 00:11:22;;;;;;;58.47;28.13;;;;;;;-1.85;65.16;100017.81;4939550;28;101349;-76
2023/12/05 00:13:48;;;;;;;55.80;27.90;;;;;;;-1.87;64.47;100022.09;4940084;28;100464;-75
2023/12/05 00:16:13;;;;;;;58.07;28.60;;;;;;;-1.82;65.11;100004.13;4955615;28;97334;-77
2023/12/05 00:18:39;;;;;;;58.60;27.70;;;;;;;-1.77;64.32;100006.78;4956299;28;97363;-76
2023/12/05 00:21:05;;;;;;;59.97;29.23;;;;;;;-1.85;64.23;100010.09;4971358;28;97414;-75
2023/12/05 00:23:31;;;;;;;64.53;30.67;;;;;;;-1.96;64.58;100006.53;4971817;28;100412;-75
2023/12/05 00:25:56;;;;;;;57.57;29.57;;;;;;;-1.95;64.50;99997.13;4972475;28;96760;-75
2023/12/05 00:28:22;;;;;;;58.70;29.30;;;;;;;-2.12;64.91;99982.38;4972665;28;96819;-76
2023/12/05 00:30:47;;;;;;;65.67;30.47;;;;;;;-2.11;64.48;99994.38;4972535;28;97634;-75
2023/12/05 00:33:13;;;;;;;62.50;29.07;;;;;;;-2.08;64.71;99976.41;4955367;28;101231;-76
2023/12/05 00:35:39;;;;;;;60.53;29.80;;;;;;;-2.11;64.35;99991.78;4961980;28;96817;-76
2023/12/05 00:38:05;;;;;;;56.70;28.30;;;;;;;-2.12;64.69;99976.38;4956080;28;96929;-76
2023/12/05 00:40:30;;;;;;;60.60;29.90;;;;;;;-2.15;64.04;99982.31;4960287;28;101103;-78
2023/12/05 00:42:56;;;;;;;70.10;31.20;;;;;;;-2.10;64.46;99985.78;4959421;28;100837;-76
2023/12/05 00:45:22;;;;;;;67.50;30.33;;;;;;;-2.22;64.39;99985.66;4971741;28;96768;-76
2023/12/05 00:47:48;;;;;;;66.03;30.97;;;;;;;-2.43;64.68;99960.53;4973592;28;97426;-76
2023/12/05 00:50:14;;;;;;;66.97;29.90;;;;;;;-2.14;64.66;99994.34;4952857;28;101810;-75
2023/12/05 00:52:39;;;;;;;70.43;32.43;;;;;;;-2.10;64.04;99998.66;4967230;28;101268;-75
2023/12/05 00:55:05;;;;;;;71.37;31.13;;;;;;;-2.00;64.04;99997.06;4953485;28;97791;-76
2023/12/05 00:57:31;;;;;;;68.23;32.20;;;;;;;-1.99;63.52;99997.94;4951367;28;96878;-76
2023/12/05 00:59:56;;;;;;;65.47;32.10;;;;;;;-1.94;63.51;99998.84;4954811;28;101285;-76
2023/12/05 01:02:23;;;;;;;60.43;31.60;;;;;;;-1.87;62.67;99995.50;4943416;28;101507;-76
2023/12/05 01:04:48;;;;;;;63.80;32.30;;;;;;;-2.02;63.04;99996.19;4976488;28;96750;-76
2023/12/05 01:07:14;;;;;;;62.03;30.37;;;;;;;-2.11;63.27;99994.38;4976981;28;97222;-75
2023/12/05 01:09:40;;;;;;;60.30;30.13;;;;;;;-2.24;63.31;99989.94;4973128;28;98091;-76
2023/12/05 01:12:07;;;;;;;63.93;30.37;;;;;;;-2.15;63.06;99990.03;4972723;28;97361;-75
2023/12/05 01:14:33;;;;;;;67.03;29.47;;;;;;;-2.06;62.84;99997.88;4938896;28;97258;-76
2023/12/05 01:16:58;;;;;;;61.73;29.53;;;;;;;-2.24;62.98;99994.19;4986644;28;97275;-76
2023/12/05 01:19:24;;;;;;;60.23;29.67;;;;;;;-2.05;62.23;99996.16;4973911;28;97471;-76
2023/12/05 01:21:49;;;;;;;63.87;30.03;;;;;;;-2.40;63.48;99991.44;4986793;28;101148;-76
2023/12/05 01:24:15;;;;;;;64.53;29.83;;;;;;;-2.53;63.62;99985.28;4954304;28;96776;-75
2023/12/05 01:26:41;;;;;;;66.90;31.23;;;;;;;-2.50;63.45;99979.31;4940463;28;96838;-75
2023/12/05 01:29:06;;;;;;;62.33;30.90;;;;;;;-2.49;63.26;99980.19;4977932;28;101233;-76
2023/12/05 01:31:32;;;;;;;62.50;29.67;;;;;;;-2.42;63.55;99981.97;4977398;28;97418;-76
2023/12/05 01:33:58;;;;;;;62.20;30.83;;;;;;;-2.67;63.78;99971.38;4977276;28;96836;-75
2023/12/05 01:36:23;;;;;;;65.03;31.37;;;;;;;-2.61;63.92;99973.16;4982422;28;97164;-76
2023/12/05 01:38:49;;;;;;;63.70;30.53;;;;;;;-2.40;63.28;99982.88;4959942;28;102792;-78
2023/12/05 01:41:15;;;;;;;60.27;29.43;;;;;;;-2.41;62.17;99984.56;4961718;28;101636;-76
2023/12/05 01:43:41;;;;;;;63.03;31.33;;;;;;;-2.33;62.62;99982.97;4958802;28;96848;-75
2023/12/05 01:46:06;;;;;;;65.03;31.20;;;;;;;-2.38;63.26;99983.75;4957673;28;96858;-78
2023/12/05 01:48:33;;;;;;;61.73;27.07;;;;;;;-2.40;62.91;99976.00;4956278;28;101597;-76
2023/12/05 01:51:03;;;;;;;59.00;29.70;;;;;;;-2.39;62.96;99964.00;4938881;28;100816;-75
2023/12/05 01:53:30;;;;;;;63.10;29.10;;;;;;;-2.23;62.71;99975.38;4973806;28;96932;-76
2023/12/05 01:55:55;;;;;;;60.03;27.97;;;;;;;-2.10;61.62;99984.94;4963172;28;96784;-75
2023/12/05 01:58:21;;;;;;;61.83;29.87;;;;;;;-2.12;62.23;99974.66;4965884;28;101615;-75
2023/12/05 02:00:47;;;;;;;64.43;29.70;;;;;;;-2.11;61.89;99971.22;4971065;28;101708;-77
2023/12/05 02:03:13;;;;;;;63.17;30.17;;;;;;;-2.16;61.68;99974.59;4970423;28;96802;-76
2023/12/05 02:05:38;;;;;;;61.27;28.67;;;;;;;-2.20;62.05;99959.97;4955298;28;97530;-76
2023/12/05 02:08:06;;;;;;;58.57;30.30;;;;;;;-2.30;61.48;99965.00;4937927;28;101475;-75
2023/12/05 02:10:31;;;;;;;55.37;27.97;;;;;;;-2.22;61.73;99971.94;4954670;28;97368;-75
2023/12/05 02:12:57;;;;;;;63.33;29.73;;;;;;;-2.34;61.35;99970.94;4971015;28;96954;-76
2023/12/05 02:15:22;;;;;;;57.40;27.40;;;;;;;-2.32;61.23;99968.41;4954213;28;97162;-77
2023/12/05 02:18:09;;;;;;;58.70;27.13;;;;;;;-2.34;61.59;99965.78;4972010;28;97410;-77
2023/12/05 02:20:50;;;;;;;62.67;26.90;;;;;;;-2.26;61.67;99962.47;4970902;28;100539;-76
2023/12/05 02:23:37;;;;;;;56.47;28.07;;;;;;;-2.32;61.23;99961.53;4970101;28;96842;-75
2023/12/05 02:26:24;;;;;;;63.57;29.97;;;;;;;-2.45;61.22;99963.94;4943933;28;97381;-75
2023/12/05 02:28:49;;;;;;;62.87;30.03;;;;;;;-2.44;61.73;99963.09;5008604;28;101590;-76
2023/12/05 02:31:15;;;;;;;56.77;27.63;;;;;;;-2.49;61.63;99959.63;4971681;28;97950;-76
2023/12/05 02:33:41;;;;;;;60.00;28.60;;;;;;;-2.47;61.74;99960.47;4971380;28;96804;-75
2023/12/05 02:36:18;;;;;;;58.67;27.00;;;;;;;-2.60;61.78;99955.19;4954474;28;96819;-76
2023/12/05 02:39:39;;;;;;;64.47;30.20;;;;;;;-2.63;62.15;99952.56;4971664;28;98657;-76
2023/12/05 02:42:09;;;;;;;62.80;29.37;;;;;;;-2.63;62.34;99956.84;4951451;28;98720;-75
2023/12/05 02:44:43;;;;;;;64.40;29.17;;;;;;;-2.63;61.70;99947.44;4968999;28;98974;-75
2023/12/05 02:47:10;;;;;;;70.23;30.23;;;;;;;-2.67;62.53;99937.09;4935882;28;97370;-75
2023/12/05 02:49:36;;;;;;;60.80;29.87;;;;;;;-2.72;62.41;99947.31;4958540;28;100155;-75
2023/12/05 02:52:02;;;;;;;62.43;30.53;;;;;;;-2.85;62.34;99940.25;4954938;28;97455;-75
2023/12/05 02:54:28;;;;;;;64.53;28.37;;;;;;;-2.82;62.48;99930.03;4982695;28;97389;-76
2023/12/05 02:56:53;;;;;;;67.37;31.53;;;;;;;-2.91;62.69;99928.19;4958640;28;97383;-76
2023/12/05 02:59:19;;;;;;;65.10;29.17;;;;;;;-2.68;62.83;99920.81;4975112;28;102302;-76
2023/12/05 03:01:44;;;;;;;62.03;28.23;;;;;;;-2.61;62.38;99942.31;4971027;28;97336;-76
2023/12/05 03:04:10;;;;;;;64.10;30.07;;;;;;;-2.64;62.55;99942.28;4975403;28;97065;-75
2023/12/05 03:06:35;;;;;;;64.60;30.13;;;;;;;-2.76;62.21;99932.72;4975221;28;96849;-75
2023/12/05 03:09:03;;;;;;;68.37;31.17;;;;;;;-2.78;62.74;99931.81;4958473;28;101424;-75
2023/12/05 03:11:29;;;;;;;59.50;30.23;;;;;;;-2.84;62.83;99918.88;4958607;28;97648;-75
2023/12/05 03:13:55;;;;;;;58.93;29.43;;;;;;;-2.90;62.21;99911.09;4958048;28;96787;-75
2023/12/05 03:16:20;;;;;;;58.13;29.40;;;;;;;-2.94;63.29;99935.84;4973955;28;96758;-76
2023/12/05 03:18:46;;;;;;;56.10;27.83;;;;;;;-2.96;63.02;99906.75;4957848;28;100851;-75
2023/12/05 03:21:17;;;;;;;60.07;28.93;;;;;;;-2.95;63.00;99911.03;4958188;28;101191;-75
2023/12/05 03:23:43;;;;;;;63.65;28.27;;;;;;;-3.17;63.40;99907.31;4958516;28;97298;-76
2023/12/05 03:26:19;;;;;;;58.97;28.07;;;;;;;-3.15;63.38;99915.00;4975418;28;97387;-76
2023/12/05 03:28:45;;;;;;;58.87;29.30;;;;;;;-3.27;64.28;99910.56;4941742;28;101717;-75
2023/12/05 03:31:10;;;;;;;63.63;29.37;;;;;;;-3.20;63.47;99909.78;4958424;28;98913;-75
2023/12/05 03:33:37;;;;;;;63.40;29.37;;;;;;;-3.34;64.53;99888.22;4957928;28;96792;-75
2023/12/05 03:36:03;;;;;;;63.80;28.37;;;;;;;-3.09;64.12;99908.25;4958693;28;96752;-75
2023/12/05 03:38:28;;;;;;;54.47;27.60;;;;;;;-3.06;63.69;99916.00;4974041;28;101324;-77
2023/12/05 03:40:55;;;;;;;61.60;28.83;;;;;;;-2.94;63.49;99920.44;4957990;28;101256;-75
2023/12/05 03:43:20;;;;;;;60.90;27.50;;;;;;;-2.89;63.83;99910.25;4972986;28;97230;-75
2023/12/05 03:45:46;;;;;;;64.27;30.63;;;;;;;-2.79;63.05;99920.69;4974452;28;96867;-75
2023/12/05 03:48:11;;;;;;;56.43;29.03;;;;;;;-2.90;63.75;99914.53;4957144;28;101289;-75
2023/12/05 03:50:37;;;;;;;60.30;29.53;;;;;;;-2.96;63.82;99899.03;4957878;28;101091;-75
2023/12/05 03:53:03;;;;;;;61.40;29.20;;;;;;;-2.85;63.45;99917.16;4962417;28;97706;-75
2023/12/05 03:55:31;;;;;;;61.23;28.97;;;;;;;-2.92;63.58;99907.63;4978545;28;97327;-75
2023/12/05 03:57:57;;;;;;;64.70;32.37;;;;;;;-2.75;63.54;99907.03;4990087;28;101974;-75
2023/12/05 04:00:22;;;;;;;64.83;31.30;;;;;;;-2.70;62.99;99911.38;4974679;28;97545;-75
2023/12/05 04:02:48;;;;;;;62.03;30.23;;;;;;;-2.73;62.84;99912.19;4973388;28;97163;-76
2023/12/05 04:05:13;;;;;;;68.03;32.43;;;;;;;-2.90;63.44;99898.25;4963118;28;97518;-76
2023/12/05 04:07:40;;;;;;;61.97;30.87;;;;;;;-2.78;62.71;99911.25;4973470;28;97585;-76
2023/12/05 04:10:06;;;;;;;63.73;32.03;;;;;;;-2.92;63.92;99905.94;4957077;28;101628;-76
2023/12/05 04:12:32;;;;;;;63.93;30.57;;;;;;;-2.82;63.80;99909.47;4973111;28;96818;-75
2023/12/05 04:14:57;;;;;;;64.23;30.73;;;;;;;-2.91;63.69;99911.91;4958993;28;96835;-75
2023/12/05 04:17:23;;;;;;;65.83;33.37;;;;;;;-2.70;63.77;99912.22;4956902;28;97441;-75
2023/12/05 04:19:48;;;;;;;65.10;30.40;;;;;;;-2.61;63.28;99920.06;4975263;28;97391;-77
2023/12/05 04:22:14;;;;;;;64.97;31.83;;;;;;;-2.69;62.93;99913.09;4956267;28;97239;-75
2023/12/05 04:24:39;;;;;;;63.97;33.63;;;;;;;-2.75;63.16;99917.28;4979768;28;96976;-76
2023/12/05 04:27:05;;;;;;;63.63;30.17;;;;;;;-2.75;63.27;99924.16;4982310;28;101573;-76
2023/12/05 04:29:30;;;;;;;64.30;31.03;;;;;;;-2.85;63.58;99918.03;4967229;28;100669;-76
2023/12/05 04:31:58;;;;;;;65.33;31.60;;;;;;;-2.84;63.93;99913.75;4985779;28;97068;-75
2023/12/05 04:34:23;;;;;;;63.30;30.40;;;;;;;-2.79;63.40;99912.97;4951526;28;97345;-75
2023/12/05 04:36:50;;;;;;;58.93;30.77;;;;;;;-2.82;62.85;99912.94;4963821;28;101294;-76
2023/12/05 04:39:16;;;;;;;67.57;31.93;;;;;;;-2.74;63.13;99924.16;4948509;28;101764;-76
2023/12/05 04:41:42;;;;;;;65.17;29.47;;;;;;;-2.75;62.97;99907.03;4964638;28;96778;-76
2023/12/05 04:44:07;;;;;;;58.23;29.80;;;;;;;-2.66;63.25;99905.41;4983857;28;96997;-75
2023/12/05 04:46:38;;;;;;;63.40;31.00;;;;;;;-2.52;62.90;99901.31;4981543;28;101312;-75
2023/12/05 04:49:05;;;;;;;60.73;29.63;;;;;;;-2.60;63.41;99895.22;4980996;28;101788;-75
2023/12/05 04:51:31;;;;;;;65.07;31.97;;;;;;;-2.84;63.62;99909.47;4963242;28;97169;-75
2023/12/05 04:53:56;;;;;;;62.83;30.93;;;;;;;-3.00;63.31;99886.97;4983905;28;97295;-75
2023/12/05 04:56:22;;;;;;;66.43;30.90;;;;;;;-2.84;63.30;99899.19;4984409;28;101119;-76
2023/12/05 04:58:48;;;;;;;71.20;32.93;;;;;;;-2.81;63.86;99890.66;4967570;28;101822;-75
2023/12/05 05:01:14;;;;;;;69.17;32.60;;;;;;;-2.97;63.89;99854.50;4954955;28;100193;-75
2023/12/05 05:03:39;;;;;;;67.20;30.93;;;;;;;-2.87;63.64;99867.47;4984764;28;96856;-75
2023/12/05 05:06:05;;;;;;;61.73;31.20;;;;;;;-2.87;64.19;99888.88;4963666;28;99643;-76
2023/12/05 05:08:30;;;;;;;63.87;32.20;;;;;;;-2.91;63.26;99881.09;4950022;28;101153;-75
2023/12/05 05:10:56;;;;;;;65.77;31.27;;;;;;;-2.87;63.48;99893.16;4968390;28;96742;-75
2023/12/05 05:13:21;;;;;;;66.63;32.57;;;;;;;-2.69;63.35;99887.41;4969630;28;96948;-77
2023/12/05 05:15:47;;;;;;;66.87;33.03;;;;;;;-3.06;64.15;99868.91;4967670;28;101070;-76
2023/12/05 05:18:12;;;;;;;72.13;33.20;;;;;;;-3.11;63.92;99874.00;4967040;28;102147;-75
2023/12/05 05:20:38;;;;;;;73.37;32.63;;;;;;;-2.98;64.40;99888.72;5002168;28;99254;-76
2023/12/05 05:23:03;;;;;;;65.57;34.27;;;;;;;-2.93;63.66;99893.94;4980995;28;97370;-75
2023/12/05 05:25:29;;;;;;;71.60;33.97;;;;;;;-3.02;63.89;99884.41;4964641;28;98912;-75
2023/12/05 05:27:54;;;;;;;64.13;30.93;;;;;;;-3.01;64.34;99869.84;4971665;28;97293;-76
2023/12/05 05:30:20;;;;;;;63.50;30.87;;;;;;;-3.04;63.67;99875.81;4971590;28;97497;-75
2023/12/05 05:32:45;;;;;;;70.30;33.10;;;;;;;-3.02;63.86;99884.41;4964742;28;96966;-77
2023/12/05 05:35:11;;;;;;;66.23;31.33;;;;;;;-3.07;63.67;99870.63;4952770;28;101451;-76
2023/12/05 05:37:36;;;;;;;65.50;32.23;;;;;;;-3.19;64.10;99873.88;5006249;28;99231;-76
2023/12/05 05:40:02;;;;;;;62.33;30.13;;;;;;;-3.01;64.19;99890.41;4954419;28;96832;-72
2023/12/05 05:42:28;;;;;;;70.60;32.27;;;;;;;-2.93;63.16;99887.94;4969706;28;97463;-71
2023/12/05 05:44:53;;;;;;;69.03;31.97;;;;;;;-2.98;63.70;99887.88;4972896;28;97953;-73
2023/12/05 05:47:19;;;;;;;70.57;35.17;;;;;;;-2.93;63.39;99890.50;4945970;28;97590;-75
2023/12/05 05:49:46;;;;;;;61.87;31.73;;;;;;;-2.86;63.43;99884.59;4975560;28;96808;-72
2023/12/05 05:52:11;;;;;;;65.47;31.63;;;;;;;-3.04;63.22;99877.50;4976302;28;96876;-73
2023/12/05 05:54:37;;;;;;;71.67;32.60;;;;;;;-3.11;62.91;99866.31;4952818;28;101154;-72
2023/12/05 05:57:03;;;;;;;63.80;33.63;;;;;;;-3.07;63.56;99878.34;4963767;28;100969;-75
2023/12/05 05:59:28;;;;;;;69.90;32.97;;;;;;;-3.03;63.14;99884.38;4961077;28;97236;-77
2023/12/05 06:01:54;;;;;;;63.87;32.20;;;;;;;-2.98;62.86;99888.72;4971544;28;97462;-76
2023/12/05 06:04:19;;;;;;;63.10;31.73;;;;;;;-2.98;63.87;99893.84;4959114;28;97330;-77
2023/12/05 06:06:45;;;;;;;61.53;30.90;;;;;;;-3.07;63.45;99877.47;4936020;28;101072;-83
2023/12/05 06:09:10;;;;;;;73.17;34.20;;;;;;;-2.97;62.96;99892.16;5089773;22;100695;-76
2023/12/05 06:11:36;;;;;;;70.37;34.20;;;;;;;-3.09;63.09;99887.72;4957908;28;97182;-77
2023/12/05 06:14:03;;;;;;;67.03;32.30;;;;;;;-3.08;62.83;99875.75;4976965;28;97064;-77
2023/12/05 06:16:29;;;;;;;67.37;31.63;;;;;;;-2.99;63.17;99887.00;4977533;28;100713;-77
2023/12/05 06:18:54;;;;;;;71.47;34.47;;;;;;;-3.15;63.05;99897.03;4976471;28;96854;-77
2023/12/05 06:21:20;;;;;;;63.37;31.77;;;;;;;-3.20;63.77;99869.59;4977736;28;97171;-77
2023/12/05 06:23:45;;;;;;;63.30;30.53;;;;;;;-3.03;63.03;99884.38;4980991;28;97481;-77
2023/12/05 06:26:11;;;;;;;71.40;33.20;;;;;;;-2.86;62.91;99895.72;4962860;28;101925;-77
2023/12/05 06:28:36;;;;;;;68.77;32.50;;;;;;;-3.06;63.31;99874.91;4991916;28;96762;-77
2023/12/05 06:31:02;;;;;;;74.00;33.80;;;;;;;-3.11;63.61;99886.84;4955960;28;97821;-77
2023/12/05 06:33:28;;;;;;;75.20;34.43;;;;;;;-3.04;63.20;99887.78;4959587;28;101097;-77
2023/12/05 06:35:53;;;;;;;71.17;32.90;;;;;;;-3.20;63.58;99890.16;4966972;28;101448;-77
2023/12/05 06:38:19;;;;;;;64.90;32.07;;;;;;;-3.18;63.48;99895.28;4979675;28;97144;-77
2023/12/05 06:40:44;;;;;;;67.23;32.87;;;;;;;-2.94;63.18;99888.75;4962356;28;96884;-78
2023/12/05 06:43:10;;;;;;;73.30;36.40;;;;;;;-3.01;62.65;99883.53;4950792;28;101498;-77
2023/12/05 06:45:36;;;;;;;70.53;35.63;;;;;;;-2.90;62.41;99890.56;4942964;28;101862;-77
2023/12/05 06:48:01;;;;;;;73.67;34.33;;;;;;;-3.11;62.71;99894.56;4980359;28;96729;-76
2023/12/05 06:50:27;;;;;;;72.60;35.83;;;;;;;-3.12;63.40;99904.78;4936513;28;96884;-75
2023/12/05 06:52:57;;;;;;;70.57;33.60;;;;;;;-3.07;62.72;99896.31;4972607;28;100681;-77
2023/12/05 06:55:23;;;;;;;66.60;33.43;;;;;;;-3.12;63.57;99902.22;4970762;28;101345;-77
2023/12/05 06:57:49;;;;;;;74.00;34.73;;;;;;;-3.12;62.82;99897.94;4966378;28;97230;-79
2023/12/05 07:00:15;;;;;;;72.23;33.20;;;;;;;-3.00;63.15;99900.69;4967008;28;96898;-77
2023/12/05 07:02:41;;;;;;;69.07;34.27;;;;;;;-3.08;62.84;99886.03;4963043;28;98077;-77
2023/12/05 07:05:08;;;;;;;70.93;33.13;;;;;;;-2.96;62.89;99906.75;4982649;28;97618;-78
2023/12/05 07:07:34;;;;;;;68.70;33.10;;;;;;;-2.88;62.76;99905.16;4962398;28;97439;-77
2023/12/05 07:10:00;;;;;;;70.73;34.00;;;;;;;-2.97;62.64;99903.31;4952926;28;97499;-77
2023/12/05 07:12:25;;;;;;;74.67;34.60;;;;;;;-3.05;63.19;99897.19;4943180;28;101637;-77
2023/12/05 07:14:51;;;;;;;74.33;34.53;;;;;;;-3.21;63.59;99901.22;4950751;28;97401;-77
2023/12/05 07:17:17;;;;;;;63.67;30.53;;;;;;;-3.10;63.76;99888.56;4950492;28;96894;-77
2023/12/05 07:19:43;;;;;;;70.33;33.90;;;;;;;-3.12;63.56;99905.63;4957491;28;96891;-79
2023/12/05 07:22:08;;;;;;;65.20;31.00;;;;;;;-3.23;63.53;99908.06;4959162;28;101041;-77
2023/12/05 07:24:33;;;;;;;67.67;32.10;;;;;;;-3.23;64.14;99889.22;4945509;28;101466;-78
2023/12/05 07:26:59;;;;;;;68.37;34.30;;;;;;;-3.16;63.20;99895.31;4959552;28;97294;-77
2023/12/05 07:29:24;;;;;;;71.83;34.20;;;;;;;-3.29;63.72;99899.38;4975649;28;97809;-77
2023/12/05 07:31:50;;;;;;;67.67;32.83;;;;;;;-3.03;63.47;99900.63;4972738;28;100960;-76
2023/12/05 07:34:16;;;;;;;70.40;33.23;;;;;;;-2.95;63.62;99903.31;4954731;28;101047;-77
2023/12/05 07:36:41;;;;;;;73.47;34.40;;;;;;;-2.96;63.27;99902.47;4968786;28;97973;-77
2023/12/05 07:39:09;;;;;;;72.07;33.50;;;;;;;-2.76;63.74;99910.44;4982720;28;96808;-77
2023/12/05 07:41:35;;;;;;;72.67;34.77;;;;;;;-2.57;62.48;99905.53;4939214;28;100639;-78
2023/12/05 07:44:00;;;;;;;62.03;32.23;;;;;;;-2.44;61.99;99893.66;4958937;28;100261;-76
2023/12/05 07:46:26;;;;;;;71.43;33.30;;;;;;;-2.12;62.03;99899.19;4958003;28;97017;-77
2023/12/05 07:48:51;;;;;;;74.17;33.50;;;;;;;-1.57;60.36;99875.66;4970651;28;97000;-76
2023/12/05 07:51:17;;;;;;;70.97;33.87;;;;;;;-1.28;59.63;99892.22;4953469;28;101150;-77
2023/12/05 07:53:44;;;;;;;66.13;32.23;;;;;;;-1.08;58.89;99884.59;4952592;28;100679;-76
2023/12/05 07:56:10;;;;;;;62.17;30.10;;;;;;;-1.00;57.71;99875.22;4947892;28;97184;-76
2023/12/05 07:58:35;;;;;;;65.23;32.30;;;;;;;-0.65;58.21;99884.84;4969601;28;96988;-76
2023/12/05 08:01:01;;;;;;;65.83;32.60;;;;;;;-0.64;57.54;99884.00;4975435;28;97469;-76
2023/12/05 08:03:26;;;;;;;67.93;31.67;;;;;;;-0.34;57.23;99887.53;4972180;28;101698;-77
2023/12/05 08:05:52;;;;;;;64.80;30.83;;;;;;;-0.31;56.96;99874.66;4955809;28;97044;-74
2023/12/05 08:08:18;;;;;;;61.80;30.10;;;;;;;-0.18;56.46;99881.56;4939898;28;96982;-75
2023/12/05 08:10:43;;;;;;;58.30;29.77;;;;;;;0.32;56.24;99880.78;4954575;28;101203;-76
2023/12/05 08:13:09;;;;;;;63.63;31.13;;;;;;;0.65;55.47;99879.91;4960517;28;101406;-75
2023/12/05 08:15:34;;;;;;;70.07;30.47;;;;;;;0.57;55.34;99883.38;4967675;28;97256;-74
2023/12/05 08:18:00;;;;;;;62.10;30.80;;;;;;;0.12;55.35;99883.34;4971793;28;96812;-74
2023/12/05 08:20:25;;;;;;;67.97;32.63;;;;;;;0.09;56.46;99882.47;4972500;28;98155;-74
2023/12/05 08:22:51;;;;;;;60.10;31.40;;;;;;;0.77;55.18;99891.97;4970121;28;97409;-74
2023/12/05 08:25:16;;;;;;;62.97;32.37;;;;;;;1.00;54.61;99891.94;4956231;28;96775;-74
2023/12/05 08:27:42;;;;;;;62.37;33.23;;;;;;;1.23;53.88;99883.25;4958381;28;96876;-75
2023/12/05 08:30:07;;;;;;;65.50;30.47;;;;;;;0.73;54.71;99897.13;4960440;28;98890;-76
2023/12/05 08:32:33;;;;;;;59.33;31.67;;;;;;;0.79;54.93;99894.56;4956283;28;98543;-76
2023/12/05 08:34:58;;;;;;;63.23;33.23;;;;;;;0.84;54.85;99892.81;4947664;28;98532;-76
2023/12/05 08:37:24;;;;;;;61.70;32.83;;;;;;;0.54;54.83;99889.38;4957913;28;97563;-76
2023/12/05 08:39:49;;;;;;;66.90;34.00;;;;;;;0.07;56.07;99897.09;4937608;28;101475;-76
2023/12/05 08:42:15;;;;;;;60.23;31.37;;;;;;;0.01;56.85;99902.25;4962620;28;101209;-76
2023/12/05 08:44:42;;;;;;;65.80;32.97;;;;;;;-0.18;57.00;99902.19;4967768;28;97247;-77
2023/12/05 08:47:08;;;;;;;63.47;33.80;;;;;;;-0.20;57.33;99897.88;4951056;28;98406;-76
2023/12/05 08:49:33;;;;;;;66.67;34.37;;;;;;;-0.26;57.40;99891.88;4946792;28;97843;-78
2023/12/05 08:51:59;;;;;;;67.23;33.53;;;;;;;-0.30;57.93;99899.59;4963884;28;97857;-78
2023/12/05 08:54:24;;;;;;;61.40;32.40;;;;;;;-0.51;57.92;99880.59;4954114;28;96779;-77
2023/12/05 08:56:50;;;;;;;68.70;34.20;;;;;;;-0.34;58.30;99903.03;4940698;28;96854;-77
2023/12/05 08:59:16;;;;;;;65.97;32.17;;;;;;;-0.24;58.18;99897.88;4939572;28;101590;-76
2023/12/05 09:01:46;;;;;;;68.27;34.50;;;;;;;-0.22;57.88;99897.03;4972352;28;101045;-76
2023/12/05 09:04:11;;;;;;;70.27;35.63;;;;;;;-0.35;58.15;99889.28;4970856;28;96773;-76
2023/12/05 09:06:37;;;;;;;68.70;34.87;;;;;;;-0.64;58.59;99891.72;4954096;28;97196;-76
2023/12/05 09:09:03;;;;;;;70.70;34.07;;;;;;;-0.74;59.08;99905.41;4949692;28;98292;-76
2023/12/05 09:11:28;;;;;;;70.77;34.40;;;;;;;-0.82;59.26;99900.22;4965882;28;97861;-76
2023/12/05 09:13:54;;;;;;;69.47;33.23;;;;;;;-0.81;59.55;99899.38;4971210;28;97183;-77
2023/12/05 09:16:20;;;;;;;71.87;35.73;;;;;;;-0.64;58.94;99903.75;4948840;28;97172;-78
2023/12/05 09:18:45;;;;;;;73.63;34.83;;;;;;;-0.77;59.09;99890.78;4943864;28;101142;-76
2023/12/05 09:21:11;;;;;;;64.30;33.30;;;;;;;-0.72;59.26;99908.88;4969065;28;101202;-76
2023/12/05 09:23:37;;;;;;;70.40;35.10;;;;;;;-0.78;59.39;99895.97;4963034;28;96734;-76
2023/12/05 09:26:04;;;;;;;74.90;36.13;;;;;;;-0.63;59.47;99890.00;4960980;28;96859;-75
2023/12/05 09:28:31;;;;;;;72.63;33.80;;;;;;;-0.51;58.61;99878.03;4970702;28;101005;-77
2023/12/05 09:30:57;;;;;;;73.13;34.97;;;;;;;-0.76;59.51;99877.03;4964203;28;100816;-76
2023/12/05 09:33:22;;;;;;;73.50;34.83;;;;;;;-0.75;59.75;99881.38;4953899;28;96785;-76
2023/12/05 09:35:48;;;;;;;60.10;31.77;;;;;;;-0.61;59.42;99883.13;4948392;28;96796;-76
2023/12/05 09:38:13;;;;;;;66.27;32.77;;;;;;;-0.65;59.79;99877.09;4964823;28;98337;-76
2023/12/05 09:40:39;;;;;;;65.23;31.20;;;;;;;-0.50;59.32;99866.84;4969561;28;98669;-76
2023/12/05 09:43:06;;;;;;;65.33;30.70;;;;;;;-0.71;60.15;99875.34;4961038;28;97410;-76
2023/12/05 09:45:37;;;;;;;61.37;32.40;;;;;;;-0.74;60.40;99877.06;4966397;28;96800;-77
2023/12/05 09:48:05;;;;;;;63.83;32.40;;;;;;;-0.25;60.01;99872.09;4944265;28;97549;-76
2023/12/05 09:50:31;;;;;;;65.33;31.43;;;;;;;-0.32;59.49;99862.59;4939750;28;98044;-77
2023/12/05 09:52:58;;;;;;;68.37;33.20;;;;;;;-0.23;60.04;99865.22;4974545;28;97899;-77
2023/12/05 09:55:24;;;;;;;72.00;34.10;;;;;;;-0.02;59.80;99851.50;4969028;28;97464;-77
2023/12/05 09:57:50;;;;;;;74.07;34.33;;;;;;;0.15;59.50;99841.19;4967028;28;98654;-80
2023/12/05 10:00:16;;;;;;;58.43;30.80;;;;;;;-0.01;58.98;99840.31;4950699;28;101272;-77
2023/12/05 10:02:46;;;;;;;57.23;30.50;;;;;;;-0.10;59.37;99827.41;4970945;28;97878;-81
2023/12/05 10:05:14;;;;;;;57.93;28.97;;;;;;;0.21;59.32;99839.47;4971378;28;96840;-76
2023/12/05 10:07:39;;;;;;;55.17;29.23;;;;;;;0.16;59.55;99840.31;4962630;28;97404;-78
2023/12/05 10:10:06;;;;;;;57.20;28.10;;;;;;;0.28;59.56;99842.91;4962670;28;101267;-76
2023/12/05 10:12:32;;;;;;;48.53;25.97;;;;;;;0.30;59.30;99835.19;4941603;28;97064;-82
2023/12/05 10:14:58;;;;;;;47.07;24.50;;;;;;;0.20;60.25;99830.00;4947908;28;96851;-82
2023/12/05 10:17:25;;;;;;;54.37;26.60;;;;;;;0.39;58.94;99830.84;4980547;28;100752;-81
2023/12/05 10:19:51;;;;;;;50.37;26.37;;;;;;;0.36;59.74;99823.13;4978575;28;99552;-81
2023/12/05 10:22:16;;;;;;;48.87;24.07;;;;;;;0.54;59.68;99832.56;4982659;28;98281;-82
2023/12/05 10:24:45;;;;;;;51.23;26.90;;;;;;;0.40;59.57;99805.88;4980320;28;96766;-83
2023/12/05 10:27:11;;;;;;;42.47;24.13;;;;;;;0.58;59.06;99818.81;4977656;28;97249;-82
2023/12/05 10:29:41;;;;;;;46.20;24.27;;;;;;;0.58;59.32;99826.56;4959698;28;97563;-82
2023/12/05 10:32:08;;;;;;;46.23;26.03;;;;;;;0.51;60.09;99818.81;4956879;28;96782;-81
2023/12/05 10:34:51;;;;;;;51.50;25.80;;;;;;;0.37;59.70;99806.75;4955977;28;98114;-82
2023/12/05 10:37:24;;;;;;;44.67;24.63;;;;;;;0.57;59.75;99806.72;4976363;28;101303;-83
2023/12/05 10:39:51;;;;;;;46.20;23.27;;;;;;;0.81;58.95;99817.88;4951617;28;97914;-80
2023/12/05 10:42:18;;;;;;;44.83;23.17;;;;;;;0.78;58.93;99815.28;4965727;28;98586;-82
2023/12/05 10:44:44;;;;;;;44.23;24.30;;;;;;;0.89;59.39;99809.22;4951758;28;97395;-81
2023/12/05 10:47:11;;;;;;;39.23;22.07;;;;;;;0.93;58.49;99815.25;4963952;28;101232;-78
2023/12/05 10:49:38;;;;;;;39.90;22.67;;;;;;;0.96;58.65;99802.34;4952807;28;100903;-79
2023/12/05 10:52:05;;;;;;;39.77;23.07;;;;;;;1.23;58.41;99803.97;4954258;28;96907;-81
2023/12/05 10:54:30;;;;;;;39.20;22.97;;;;;;;1.15;58.17;99789.34;4953482;28;97363;-77
2023/12/05 10:56:57;;;;;;;44.53;23.00;;;;;;;1.27;57.45;99779.78;4964133;28;98419;-77
2023/12/05 10:59:26;;;;;;;42.87;22.50;;;;;;;1.51;57.47;99799.53;4934290;28;101076;-76
2023/12/05 11:01:54;;;;;;;38.67;21.97;;;;;;;1.56;57.25;99799.47;4957809;28;96846;-74
2023/12/05 11:04:20;;;;;;;39.80;22.07;;;;;;;1.65;57.08;99786.47;4962358;28;96806;-77
2023/12/05 11:06:45;;;;;;;40.80;22.43;;;;;;;1.63;57.65;99797.69;4965395;28;97315;-74
2023/12/05 11:09:11;;;;;;;42.07;21.97;;;;;;;1.70;57.17;99791.63;4956620;28;101354;-76
2023/12/05 11:11:40;;;;;;;47.47;24.80;;;;;;;1.69;57.33;99792.50;4962709;28;96895;-75
2023/12/05 11:14:08;;;;;;;45.43;22.87;;;;;;;1.48;57.12;99791.75;4974829;28;96950;-77